sensor_id;sensor_type;location;lat;lon;timestamp;pressure;altitude;pressure_sealevel;temperature;humidity
48614;BME280;34408;51.426;5.444;2023-04-28T00:00:52;101258.25;;;12.88;46.59
48614;BME280;34408;51.426;5.444;2023-04-28T00:03:20;101250.16;;;12.88;46.79
48614;BME280;34408;51.426;5.444;2023-04-28T00:05:51;101252.03;;;12.88;47.36
48614;BME280;34408;51.426;5.444;2023-04-28T00:08:19;101249.56;;;12.86;47.24
48614;BME280;34408;51.426;5.444;2023-04-28T00:10:48;101253.31;;;12.85;47.22
48614;BME280;34408;51.426;5.444;2023-04-28T00:13:16;101246.25;;;12.84;47.55
48614;BME280;34408;51.426;5.444;2023-04-28T00:15:44;101240.28;;;12.82;47.62
48614;BME280;34408;51.426;5.444;2023-04-28T00:18:12;101230.53;;;12.81;48.01
48614;BME280;34408;51.426;5.444;2023-04-28T00:20:40;101231.59;;;12.80;47.75
48614;BME280;34408;51.426;5.444;2023-04-28T00:23:09;101227.22;;;12.79;48.01
48614;BME280;34408;51.426;5.444;2023-04-28T00:25:37;101218.84;;;12.69;48.04
48614;BME280;34408;51.426;5.444;2023-04-28T00:28:05;101232.84;;;12.78;47.94
48614;BME280;34408;51.426;5.444;2023-04-28T00:30:33;101226.88;;;12.76;48.18
48614;BME280;34408;51.426;5.444;2023-04-28T00:33:01;101217.13;;;12.75;47.88
48614;BME280;34408;51.426;5.444;2023-04-28T00:35:28;101215.47;;;12.74;48.26
48614;BME280;34408;51.426;5.444;2023-04-28T00:37:56;101195.19;;;12.71;48.14
48614;BME280;34408;51.426;5.444;2023-04-28T00:40:32;101198.69;;;12.71;48.26
48614;BME280;34408;51.426;5.444;2023-04-28T00:43:00;101195.41;;;12.69;48.44
48614;BME280;34408;51.426;5.444;2023-04-28T00:45:28;101193.75;;;12.68;48.32
48614;BME280;34408;51.426;5.444;2023-04-28T00:47:56;101189.41;;;12.67;48.39
48614;BME280;34408;51.426;5.444;2023-04-28T00:50:25;101179.69;;;12.66;48.73
48614;BME280;34408;51.426;5.444;2023-04-28T00:52:53;101183.44;;;12.65;48.67
48614;BME280;34408;51.426;5.444;2023-04-28T00:55:21;101178.28;;;12.64;48.29
48614;BME280;34408;51.426;5.444;2023-04-28T00:57:54;101177.44;;;12.63;48.34
48614;BME280;34408;51.426;5.444;2023-04-28T01:00:22;101171.22;;;12.63;48.83
48614;BME280;34408;51.426;5.444;2023-04-28T01:02:51;101163.38;;;12.61;48.45
48614;BME280;34408;51.426;5.444;2023-04-28T01:05:19;101159.03;;;12.60;48.50
48614;BME280;34408;51.426;5.444;2023-04-28T01:07:47;101150.13;;;12.60;48.54
48614;BME280;34408;51.426;5.444;2023-04-28T01:10:15;101147.63;;;12.58;48.84
48614;BME280;34408;51.426;5.444;2023-04-28T01:12:42;101147.03;;;12.56;48.67
48614;BME280;34408;51.426;5.444;2023-04-28T01:15:16;101148.69;;;12.57;48.65
48614;BME280;34408;51.426;5.444;2023-04-28T01:17:44;101159.69;;;12.56;49.07
48614;BME280;34408;51.426;5.444;2023-04-28T01:20:12;101157.22;;;12.54;48.93
48614;BME280;34408;51.426;5.444;2023-04-28T01:22:40;101156.19;;;12.55;48.71
48614;BME280;34408;51.426;5.444;2023-04-28T01:25:09;101149.16;;;12.54;48.68
48614;BME280;34408;51.426;5.444;2023-04-28T01:27:37;101155.59;;;12.53;49.20
48614;BME280;34408;51.426;5.444;2023-04-28T01:30:06;101149.16;;;12.54;48.85
48614;BME280;34408;51.426;5.444;2023-04-28T01:32:34;101145.63;;;12.54;49.25
48614;BME280;34408;51.426;5.444;2023-04-28T01:35:02;101146.69;;;12.53;48.81
48614;BME280;34408;51.426;5.444;2023-04-28T01:37:29;101138.00;;;12.51;48.90
48614;BME280;34408;51.426;5.444;2023-04-28T01:39:57;101134.47;;;12.50;48.96
48614;BME280;34408;51.426;5.444;2023-04-28T01:42:26;101132.81;;;12.49;49.27
48614;BME280;34408;51.426;5.444;2023-04-28T01:44:54;101134.69;;;12.49;49.06
48614;BME280;34408;51.426;5.444;2023-04-28T01:47:22;101127.66;;;12.48;49.00
48614;BME280;34408;51.426;5.444;2023-04-28T01:49:50;101124.16;;;12.47;48.93
48614;BME280;34408;51.426;5.444;2023-04-28T01:52:17;101124.16;;;12.47;49.26
48614;BME280;34408;51.426;5.444;2023-04-28T01:54:48;101134.09;;;12.47;49.31
48614;BME280;34408;51.426;5.444;2023-04-28T01:57:15;101116.75;;;12.43;49.22
48614;BME280;34408;51.426;5.444;2023-04-28T01:59:47;101116.50;;;12.44;49.49
48614;BME280;34408;51.426;5.444;2023-04-28T02:02:15;101108.88;;;12.41;49.63
48614;BME280;34408;51.426;5.444;2023-04-28T02:04:42;101121.31;;;12.42;49.68
48614;BME280;34408;51.426;5.444;2023-04-28T02:07:10;101128.56;;;12.42;49.55
48614;BME280;34408;51.426;5.444;2023-04-28T02:09:38;101123.19;;;12.42;49.59
48614;BME280;34408;51.426;5.444;2023-04-28T02:12:06;101121.75;;;12.39;49.72
48614;BME280;34408;51.426;5.444;2023-04-28T02:14:34;101132.53;;;12.39;50.24
48614;BME280;34408;51.426;5.444;2023-04-28T02:17:03;101125.50;;;12.38;49.77
48614;BME280;34408;51.426;5.444;2023-04-28T02:19:31;101114.72;;;12.38;49.95
48614;BME280;34408;51.426;5.444;2023-04-28T02:21:59;101105.22;;;12.35;49.90
48614;BME280;34408;51.426;5.444;2023-04-28T02:24:27;101097.13;;;12.35;50.37
48614;BME280;34408;51.426;5.444;2023-04-28T02:26:54;101092.78;;;12.34;50.28
48614;BME280;34408;51.426;5.444;2023-04-28T02:29:22;101100.88;;;12.34;50.49
48614;BME280;34408;51.426;5.444;2023-04-28T02:31:50;101079.53;;;12.33;50.55
48614;BME280;34408;51.426;5.444;2023-04-28T02:34:20;101082.47;;;12.31;50.43
48614;BME280;34408;51.426;5.444;2023-04-28T02:36:47;101077.91;;;12.32;50.99
48614;BME280;34408;51.426;5.444;2023-04-28T02:39:15;101069.22;;;12.30;50.68
48614;BME280;34408;51.426;5.444;2023-04-28T02:41:43;101057.41;;;12.31;50.71
48614;BME280;34408;51.426;5.444;2023-04-28T02:44:11;101033.59;;;12.28;50.95
48614;BME280;34408;51.426;5.444;2023-04-28T02:46:39;101033.59;;;12.28;51.02
48614;BME280;34408;51.426;5.444;2023-04-28T02:49:06;101021.16;;;12.27;51.13
48614;BME280;34408;51.426;5.444;2023-04-28T02:51:35;101018.69;;;12.25;51.32
48614;BME280;34408;51.426;5.444;2023-04-28T02:54:03;101007.94;;;12.25;51.22
48614;BME280;34408;51.426;5.444;2023-04-28T02:56:31;101017.88;;;12.25;51.36
48614;BME280;34408;51.426;5.444;2023-04-28T02:58:59;101015.41;;;12.23;51.31
48614;BME280;34408;51.426;5.444;2023-04-28T03:01:26;101020.81;;;12.23;51.35
48614;BME280;34408;51.426;5.444;2023-04-28T03:03:54;101035.34;;;12.22;51.67
48614;BME280;34408;51.426;5.444;2023-04-28T03:06:22;101032.63;;;12.22;51.31
48614;BME280;34408;51.426;5.444;2023-04-28T03:08:51;101023.50;;;12.23;51.70
48614;BME280;34408;51.426;5.444;2023-04-28T03:11:19;101030.75;;;12.23;51.47
48614;BME280;34408;51.426;5.444;2023-04-28T03:13:47;101028.06;;;12.23;51.53
48614;BME280;34408;51.426;5.444;2023-04-28T03:16:15;101022.91;;;12.21;51.50
48614;BME280;34408;51.426;5.444;2023-04-28T03:18:42;101022.09;;;12.21;51.47
48614;BME280;34408;51.426;5.444;2023-04-28T03:21:10;101036.59;;;12.20;51.47
48614;BME280;34408;51.426;5.444;2023-04-28T03:23:38;101035.78;;;12.19;51.58
48614;BME280;34408;51.426;5.444;2023-04-28T03:26:07;101027.69;;;12.19;51.72
48614;BME280;34408;51.426;5.444;2023-04-28T03:28:34;101034.13;;;12.18;52.03
48614;BME280;34408;51.426;5.444;2023-04-28T03:31:02;101028.75;;;12.18;51.98
48614;BME280;34408;51.426;5.444;2023-04-28T03:33:30;101026.28;;;12.17;52.03
48614;BME280;34408;51.426;5.444;2023-04-28T03:35:58;101026.28;;;12.17;52.11
48614;BME280;34408;51.426;5.444;2023-04-28T03:38:25;101028.75;;;12.18;52.30
48614;BME280;34408;51.426;5.444;2023-04-28T03:40:53;101027.09;;;12.17;52.49
48614;BME280;34408;51.426;5.444;2023-04-28T03:43:22;101020.91;;;12.17;52.26
48614;BME280;34408;51.426;5.444;2023-04-28T03:45:50;101028.16;;;12.16;52.58
48614;BME280;34408;51.426;5.444;2023-04-28T03:48:18;101018.44;;;12.15;52.39
48614;BME280;34408;51.426;5.444;2023-04-28T03:50:46;101012.22;;;12.15;52.29
48614;BME280;34408;51.426;5.444;2023-04-28T03:53:13;101009.78;;;12.13;52.28
48614;BME280;34408;51.426;5.444;2023-04-28T03:55:41;101005.19;;;12.14;52.28
48614;BME280;34408;51.426;5.444;2023-04-28T03:58:09;100997.38;;;12.12;52.68
48614;BME280;34408;51.426;5.444;2023-04-28T04:00:38;100986.81;;;12.11;52.80
48614;BME280;34408;51.426;5.444;2023-04-28T04:03:06;100986.81;;;12.11;52.79
48614;BME280;34408;51.426;5.444;2023-04-28T04:05:34;100985.16;;;12.10;52.64
48614;BME280;34408;51.426;5.444;2023-04-28T04:08:02;100980.59;;;12.10;52.57
48614;BME280;34408;51.426;5.444;2023-04-28T04:10:29;100992.22;;;12.11;52.56
48614;BME280;34408;51.426;5.444;2023-04-28T04:12:57;100992.44;;;12.09;52.74
48614;BME280;34408;51.426;5.444;2023-04-28T04:15:25;100991.59;;;12.09;52.92
48614;BME280;34408;51.426;5.444;2023-04-28T04:17:54;101005.09;;;12.09;52.72
48614;BME280;34408;51.426;5.444;2023-04-28T04:20:22;101004.25;;;12.08;52.74
48614;BME280;34408;51.426;5.444;2023-04-28T04:22:50;100997.22;;;12.07;53.03
48614;BME280;34408;51.426;5.444;2023-04-28T04:25:17;100994.53;;;12.07;52.97
48614;BME280;34408;51.426;5.444;2023-04-28T04:27:48;100997.44;;;12.05;53.04
48614;BME280;34408;51.426;5.444;2023-04-28T04:30:16;100988.56;;;12.05;52.99
48614;BME280;34408;51.426;5.444;2023-04-28T04:32:44;100989.38;;;12.05;53.09
48614;BME280;34408;51.426;5.444;2023-04-28T04:35:13;100983.16;;;12.05;53.18
48614;BME280;34408;51.426;5.444;2023-04-28T04:37:41;100978.00;;;12.03;53.24
48614;BME280;34408;51.426;5.444;2023-04-28T04:40:09;100981.53;;;12.04;53.45
48614;BME280;34408;51.426;5.444;2023-04-28T04:42:37;100972.38;;;12.05;53.08
48614;BME280;34408;51.426;5.444;2023-04-28T04:45:06;100975.31;;;12.03;53.34
48614;BME280;34408;51.426;5.444;2023-04-28T04:47:34;100970.75;;;12.04;53.43
48614;BME280;34408;51.426;5.444;2023-04-28T04:50:02;100961.00;;;12.03;53.59
48614;BME280;34408;51.426;5.444;2023-04-28T04:52:31;100963.47;;;12.04;53.76
48614;BME280;34408;51.426;5.444;2023-04-28T04:54:59;100959.97;;;12.04;54.04
48614;BME280;34408;51.426;5.444;2023-04-28T04:57:27;100954.59;;;12.04;53.83
48614;BME280;34408;51.426;5.444;2023-04-28T04:59:55;100960.78;;;12.04;53.67
48614;BME280;34408;51.426;5.444;2023-04-28T05:02:23;100960.78;;;12.04;53.93
48614;BME280;34408;51.426;5.444;2023-04-28T05:04:50;100953.75;;;12.03;53.72
48614;BME280;34408;51.426;5.444;2023-04-28T05:07:25;100954.81;;;12.02;53.71
48614;BME280;34408;51.426;5.444;2023-04-28T05:09:54;100954.81;;;12.02;53.90
48614;BME280;34408;51.426;5.444;2023-04-28T05:12:22;100953.16;;;12.01;53.68
48614;BME280;34408;51.426;5.444;2023-04-28T05:14:50;100953.16;;;12.01;53.67
48614;BME280;34408;51.426;5.444;2023-04-28T05:17:17;100953.16;;;12.01;53.93
48614;BME280;34408;51.426;5.444;2023-04-28T05:19:45;100955.84;;;12.01;54.00
48614;BME280;34408;51.426;5.444;2023-04-28T05:22:13;100960.19;;;12.02;54.38
48614;BME280;34408;51.426;5.444;2023-04-28T05:24:41;100970.97;;;12.02;53.81
48614;BME280;34408;51.426;5.444;2023-04-28T05:27:10;100971.19;;;12.01;54.31
48614;BME280;34408;51.426;5.444;2023-04-28T05:29:37;100969.31;;;12.01;54.04
48614;BME280;34408;51.426;5.444;2023-04-28T05:32:05;100965.81;;;12.01;54.17
48614;BME280;34408;51.426;5.444;2023-04-28T05:34:33;100960.66;;;11.99;54.17
48614;BME280;34408;51.426;5.444;2023-04-28T05:37:01;100953.41;;;12.00;54.47
48614;BME280;34408;51.426;5.444;2023-04-28T05:39:28;100952.56;;;11.99;54.32
48614;BME280;34408;51.426;5.444;2023-04-28T05:41:56;100950.69;;;12.00;54.21
48614;BME280;34408;51.426;5.444;2023-04-28T05:44:26;100949.06;;;11.99;53.99
48614;BME280;34408;51.426;5.444;2023-04-28T05:46:54;100952.56;;;11.99;54.60
48614;BME280;34408;51.426;5.444;2023-04-28T05:49:22;100952.81;;;11.98;54.29
48614;BME280;34408;51.426;5.444;2023-04-28T05:51:49;100954.44;;;11.99;54.50
48614;BME280;34408;51.426;5.444;2023-04-28T05:54:17;100955.50;;;11.98;54.86
48614;BME280;34408;51.426;5.444;2023-04-28T05:56:45;100965.22;;;11.99;54.65
48614;BME280;34408;51.426;5.444;2023-04-28T05:59:13;100957.97;;;11.99;55.00
48614;BME280;34408;51.426;5.444;2023-04-28T06:01:42;100945.03;;;11.90;54.94
48614;BME280;34408;51.426;5.444;2023-04-28T06:04:10;100963.13;;;12.01;54.64
48614;BME280;34408;51.426;5.444;2023-04-28T06:06:38;100957.97;;;11.99;55.05
48614;BME280;34408;51.426;5.444;2023-04-28T06:09:07;100959.59;;;12.00;55.15
48614;BME280;34408;51.426;5.444;2023-04-28T06:11:34;100962.28;;;12.00;54.72
48614;BME280;34408;51.426;5.444;2023-04-28T06:14:02;100959.59;;;12.00;54.86
48614;BME280;34408;51.426;5.444;2023-04-28T06:16:30;100955.84;;;12.01;54.92
48614;BME280;34408;51.426;5.444;2023-04-28T06:18:59;100955.63;;;12.03;55.12
48614;BME280;34408;51.426;5.444;2023-04-28T06:21:27;100949.19;;;12.04;55.26
48614;BME280;34408;51.426;5.444;2023-04-28T06:23:55;100952.94;;;12.03;55.18
48614;BME280;34408;51.426;5.444;2023-04-28T06:26:23;100952.72;;;12.04;55.39
48614;BME280;34408;51.426;5.444;2023-04-28T06:28:51;100946.63;;;12.09;55.81
48614;BME280;34408;51.426;5.444;2023-04-28T06:31:18;100955.53;;;12.10;56.32
48614;BME280;34408;51.426;5.444;2023-04-28T06:33:46;100950.97;;;12.10;55.54
48614;BME280;34408;51.426;5.444;2023-04-28T06:36:15;100955.53;;;12.10;55.72
48614;BME280;34408;51.426;5.444;2023-04-28T06:38:43;100956.34;;;12.10;55.93
48614;BME280;34408;51.426;5.444;2023-04-28T06:41:11;100952.63;;;12.11;56.09
48614;BME280;34408;51.426;5.444;2023-04-28T06:43:39;100945.34;;;12.12;56.90
48614;BME280;34408;51.426;5.444;2023-04-28T06:46:07;100946.75;;;12.14;56.68
48614;BME280;34408;51.426;5.444;2023-04-28T06:48:36;100941.34;;;12.14;57.15
48614;BME280;34408;51.426;5.444;2023-04-28T06:51:04;100934.34;;;12.13;57.11
48614;BME280;34408;51.426;5.444;2023-04-28T06:53:33;100937.38;;;12.17;57.40
48614;BME280;34408;51.426;5.444;2023-04-28T06:56:01;100935.72;;;12.16;57.18
48614;BME280;34408;51.426;5.444;2023-04-28T06:58:29;100933.03;;;12.16;57.65
48614;BME280;34408;51.426;5.444;2023-04-28T07:00:56;100925.78;;;12.16;57.86
48614;BME280;34408;51.426;5.444;2023-04-28T07:03:25;100925.53;;;12.18;58.18
48614;BME280;34408;51.426;5.444;2023-04-28T07:05:54;100924.72;;;12.17;57.78
48614;BME280;34408;51.426;5.444;2023-04-28T07:08:22;100918.50;;;12.17;57.66
48614;BME280;34408;51.426;5.444;2023-04-28T07:10:51;100925.78;;;12.16;57.52
48614;BME280;34408;51.426;5.444;2023-04-28T07:13:18;100924.94;;;12.16;57.62
48614;BME280;34408;51.426;5.444;2023-04-28T07:15:46;100928.25;;;12.18;57.98
48614;BME280;34408;51.426;5.444;2023-04-28T07:18:14;100933.41;;;12.19;58.45
48614;BME280;34408;51.426;5.444;2023-04-28T07:20:42;100933.41;;;12.19;57.90
48614;BME280;34408;51.426;5.444;2023-04-28T07:23:09;100930.25;;;12.22;59.19
48614;BME280;34408;51.426;5.444;2023-04-28T07:25:37;100929.19;;;12.23;59.23
48614;BME280;34408;51.426;5.444;2023-04-28T07:28:07;100925.22;;;12.26;59.04
48614;BME280;34408;51.426;5.444;2023-04-28T07:30:35;100930.97;;;12.29;59.75
48614;BME280;34408;51.426;5.444;2023-04-28T07:33:03;100929.91;;;12.30;59.73
48614;BME280;34408;51.426;5.444;2023-04-28T07:35:31;100936.34;;;12.29;59.19
48614;BME280;34408;51.426;5.444;2023-04-28T07:37:59;100943.16;;;12.32;59.62
48614;BME280;34408;51.426;5.444;2023-04-28T07:40:26;100937.75;;;12.32;59.98
48614;BME280;34408;51.426;5.444;2023-04-28T07:42:54;100949.38;;;12.32;59.66
48614;BME280;34408;51.426;5.444;2023-04-28T07:45:23;100953.13;;;12.31;59.46
48614;BME280;34408;51.426;5.444;2023-04-28T07:47:51;100944.22;;;12.31;59.73
48614;BME280;34408;51.426;5.444;2023-04-28T07:50:19;100945.03;;;12.31;59.82
48614;BME280;34408;51.426;5.444;2023-04-28T07:52:47;100942.34;;;12.31;59.66
48614;BME280;34408;51.426;5.444;2023-04-28T07:55:15;100943.97;;;12.32;60.26
48614;BME280;34408;51.426;5.444;2023-04-28T07:57:42;100950.19;;;12.33;60.32
48614;BME280;34408;51.426;5.444;2023-04-28T08:00:11;100952.88;;;12.33;60.12
48614;BME280;34408;51.426;5.444;2023-04-28T08:02:40;100948.53;;;12.32;60.45
48614;BME280;34408;51.426;5.444;2023-04-28T08:05:08;100945.03;;;12.31;60.42
48614;BME280;34408;51.426;5.444;2023-04-28T08:07:37;100949.13;;;12.34;60.67
48614;BME280;34408;51.426;5.444;2023-04-28T08:10:05;100941.28;;;12.32;60.44
48614;BME280;34408;51.426;5.444;2023-04-28T08:12:34;100943.97;;;12.32;60.10
48614;BME280;34408;51.426;5.444;2023-04-28T08:15:02;100944.78;;;12.33;60.45
48614;BME280;34408;51.426;5.444;2023-04-28T08:17:30;100941.88;;;12.34;60.80
48614;BME280;34408;51.426;5.444;2023-04-28T08:19:59;100937.31;;;12.35;60.91
48614;BME280;34408;51.426;5.444;2023-04-28T08:22:27;100946.22;;;12.35;60.91
48614;BME280;34408;51.426;5.444;2023-04-28T08:24:55;100943.28;;;12.37;62.37
48614;BME280;34408;51.426;5.444;2023-04-28T08:27:22;100943.28;;;12.37;61.10
48614;BME280;34408;51.426;5.444;2023-04-28T08:29:51;100946.78;;;12.37;60.92
48614;BME280;34408;51.426;5.444;2023-04-28T08:32:19;100945.75;;;12.38;60.86
48614;BME280;34408;51.426;5.444;2023-04-28T08:34:46;100949.03;;;12.41;61.06
48614;BME280;34408;51.426;5.444;2023-04-28T08:37:16;100950.69;;;12.42;60.63
48614;BME280;34408;51.426;5.444;2023-04-28T08:39:43;100948.81;;;12.42;60.36
48614;BME280;34408;51.426;5.444;2023-04-28T08:42:12;100953.13;;;12.43;60.37
48614;BME280;34408;51.426;5.444;2023-04-28T08:44:40;100945.88;;;12.44;60.71
48614;BME280;34408;51.426;5.444;2023-04-28T08:47:11;100954.09;;;12.49;61.15
48614;BME280;34408;51.426;5.444;2023-04-28T08:49:39;100944.72;;;12.63;60.55
48614;BME280;34408;51.426;5.444;2023-04-28T08:52:10;100944.63;;;12.81;60.34
48614;BME280;34408;51.426;5.444;2023-04-28T08:54:39;100940.28;;;13.03;59.41
48614;BME280;34408;51.426;5.444;2023-04-28T08:57:08;100947.47;;;13.21;58.20
48614;BME280;34408;51.426;5.444;2023-04-28T08:59:39;100950.34;;;13.43;58.03
48614;BME280;34408;51.426;5.444;2023-04-28T09:02:07;100952.09;;;13.49;57.72
48614;BME280;34408;51.426;5.444;2023-04-28T09:04:35;100948.31;;;13.62;56.85
48614;BME280;34408;51.426;5.444;2023-04-28T09:07:09;100950.63;;;13.70;56.74
48614;BME280;34408;51.426;5.444;2023-04-28T09:09:37;100958.53;;;13.88;57.29
48614;BME280;34408;51.426;5.444;2023-04-28T09:12:07;100946.13;;;14.04;57.02
48614;BME280;34408;51.426;5.444;2023-04-28T09:14:36;100941.81;;;14.20;57.05
48614;BME280;34408;51.426;5.444;2023-04-28T09:17:09;100940.44;;;14.34;56.44
48614;BME280;34408;51.426;5.444;2023-04-28T09:19:38;100931.50;;;14.33;56.27
48614;BME280;34408;51.426;5.444;2023-04-28T09:22:08;100937.47;;;14.19;57.23
48614;BME280;34408;51.426;5.444;2023-04-28T09:24:51;100943.34;;;13.99;57.70
48614;BME280;34408;51.426;5.444;2023-04-28T09:27:25;100952.47;;;13.81;58.14
48614;BME280;34408;51.426;5.444;2023-04-28T09:29:54;100947.59;;;13.66;58.57
48614;BME280;34408;51.426;5.444;2023-04-28T09:32:22;100941.41;;;13.54;59.66
48614;BME280;34408;51.426;5.444;2023-04-28T09:34:52;100942.84;;;13.45;59.65
48614;BME280;34408;51.426;5.444;2023-04-28T09:37:24;100951.88;;;13.39;60.48
48614;BME280;34408;51.426;5.444;2023-04-28T09:39:53;100948.25;;;13.33;61.18
48614;BME280;34408;51.426;5.444;2023-04-28T09:42:33;100957.31;;;13.27;61.95
48614;BME280;34408;51.426;5.444;2023-04-28T09:45:03;100958.59;;;13.25;60.56
48614;BME280;34408;51.426;5.444;2023-04-28T09:47:32;100956.38;;;13.22;63.21
48614;BME280;34408;51.426;5.444;2023-04-28T09:50:03;100960.38;;;13.19;62.84
48614;BME280;34408;51.426;5.444;2023-04-28T09:52:32;100958.16;;;13.16;62.58
48614;BME280;34408;51.426;5.444;2023-04-28T09:55:02;100961.88;;;13.15;63.46
48614;BME280;34408;51.426;5.444;2023-04-28T09:57:32;100958.59;;;13.13;63.12
48614;BME280;34408;51.426;5.444;2023-04-28T10:00:02;100960.69;;;13.11;64.48
48614;BME280;34408;51.426;5.444;2023-04-28T10:02:33;100962.56;;;13.11;64.26
48614;BME280;34408;51.426;5.444;2023-04-28T10:05:05;100960.94;;;13.10;64.07
48614;BME280;34408;51.426;5.444;2023-04-28T10:07:35;100960.84;;;13.16;65.38
48614;BME280;34408;51.426;5.444;2023-04-28T10:10:06;100960.69;;;13.34;64.55
48614;BME280;34408;51.426;5.444;2023-04-28T10:12:35;100960.31;;;13.54;64.14
48614;BME280;34408;51.426;5.444;2023-04-28T10:15:06;100960.72;;;13.75;63.95
48614;BME280;34408;51.426;5.444;2023-04-28T10:17:34;100951.91;;;13.96;61.99
48614;BME280;34408;51.426;5.444;2023-04-28T10:20:04;100950.91;;;14.14;61.86
48614;BME280;34408;51.426;5.444;2023-04-28T10:22:45;100947.97;;;14.15;61.87
48614;BME280;34408;51.426;5.444;2023-04-28T10:25:26;100945.66;;;14.07;62.30
48614;BME280;34408;51.426;5.444;2023-04-28T10:27:57;100942.19;;;13.95;63.51
48614;BME280;34408;51.426;5.444;2023-04-28T10:30:26;100949.53;;;13.83;63.03
48614;BME280;34408;51.426;5.444;2023-04-28T10:33:23;100951.81;;;13.74;63.11
48614;BME280;34408;51.426;5.444;2023-04-28T10:35:53;100945.97;;;13.65;63.81
48614;BME280;34408;51.426;5.444;2023-04-28T10:38:21;100955.84;;;13.60;63.49
48614;BME280;34408;51.426;5.444;2023-04-28T10:40:49;100949.50;;;13.54;63.85
48614;BME280;34408;51.426;5.444;2023-04-28T10:43:39;100952.09;;;13.49;63.77
48614;BME280;34408;51.426;5.444;2023-04-28T10:46:08;100947.41;;;13.45;64.34
48614;BME280;34408;51.426;5.444;2023-04-28T10:48:55;100949.28;;;13.44;64.32
48614;BME280;34408;51.426;5.444;2023-04-28T10:51:27;100954.13;;;13.42;63.63
48614;BME280;34408;51.426;5.444;2023-04-28T10:54:22;100940.84;;;13.41;64.42
48614;BME280;34408;51.426;5.444;2023-04-28T10:57:16;100942.97;;;13.39;64.36
48614;BME280;34408;51.426;5.444;2023-04-28T10:59:46;100942.38;;;13.37;63.66
48614;BME280;34408;51.426;5.444;2023-04-28T11:02:35;100931.81;;;13.35;64.02
48614;BME280;34408;51.426;5.444;2023-04-28T11:05:18;100929.94;;;13.35;64.01
48614;BME280;34408;51.426;5.444;2023-04-28T11:11:11;100921.28;;;13.33;63.98
48614;BME280;34408;51.426;5.444;2023-04-28T11:13:39;100922.91;;;13.34;64.30
48614;BME280;34408;51.426;5.444;2023-04-28T11:16:09;100916.69;;;13.34;64.37
48614;BME280;34408;51.426;5.444;2023-04-28T11:18:48;100917.50;;;13.34;64.81
48614;BME280;34408;51.426;5.444;2023-04-28T11:21:21;100922.09;;;13.34;65.45
48614;BME280;34408;51.426;5.444;2023-04-28T11:23:49;100900.03;;;13.25;64.47
48614;BME280;34408;51.426;5.444;2023-04-28T11:26:18;100916.44;;;13.35;64.47
48614;BME280;34408;51.426;5.444;2023-04-28T11:28:48;100914.00;;;13.34;65.41
48614;BME280;34408;51.426;5.444;2023-04-28T11:31:17;100913.50;;;13.37;64.74
48614;BME280;34408;51.426;5.444;2023-04-28T11:33:58;100915.41;;;13.37;64.80
48614;BME280;34408;51.426;5.444;2023-04-28T11:36:29;100915.97;;;13.39;64.73
48614;BME280;34408;51.426;5.444;2023-04-28T11:38:58;100914.09;;;13.39;64.85
48614;BME280;34408;51.426;5.444;2023-04-28T11:41:26;100917.13;;;13.43;69.02
48614;BME280;34408;51.426;5.444;2023-04-28T11:43:54;100920.53;;;13.50;68.20
48614;BME280;34408;51.426;5.444;2023-04-28T11:46:24;100918.66;;;13.50;65.76
48614;BME280;34408;51.426;5.444;2023-04-28T11:49:02;100917.00;;;13.49;65.03
48614;BME280;34408;51.426;5.444;2023-04-28T11:51:33;100922.41;;;13.49;67.41
48614;BME280;34408;51.426;5.444;2023-04-28T11:54:01;100932.97;;;13.51;66.87
48614;BME280;34408;51.426;5.444;2023-04-28T11:56:29;100919.84;;;13.43;67.19
48614;BME280;34408;51.426;5.444;2023-04-28T11:59:02;100938.38;;;13.51;67.54
48614;BME280;34408;51.426;5.444;2023-04-28T12:01:33;100946.44;;;13.62;67.90
48614;BME280;34408;51.426;5.444;2023-04-28T12:04:03;100939.22;;;13.80;67.25
48614;BME280;34408;51.426;5.444;2023-04-28T12:06:31;100937.69;;;14.00;67.53
48614;BME280;34408;51.426;5.444;2023-04-28T12:08:58;100938.28;;;14.19;65.75
48614;BME280;34408;51.426;5.444;2023-04-28T12:11:30;100947.59;;;14.40;65.75
48614;BME280;34408;51.426;5.444;2023-04-28T12:14:06;100933.69;;;14.48;65.42
48614;BME280;34408;51.426;5.444;2023-04-28T12:16:40;100933.69;;;14.48;66.05
48614;BME280;34408;51.426;5.444;2023-04-28T12:19:11;100941.97;;;14.42;66.34
48614;BME280;34408;51.426;5.444;2023-04-28T12:21:41;100947.16;;;14.31;65.66
48614;BME280;34408;51.426;5.444;2023-04-28T12:24:18;100950.50;;;14.22;66.19
48614;BME280;34408;51.426;5.444;2023-04-28T12:26:47;100945.50;;;14.14;67.61
48614;BME280;34408;51.426;5.444;2023-04-28T12:29:34;100946.13;;;14.04;67.40
48614;BME280;34408;51.426;5.444;2023-04-28T12:32:06;100959.06;;;14.02;68.61
48614;BME280;34408;51.426;5.444;2023-04-28T12:34:35;100964.13;;;13.98;69.27
48614;BME280;34408;51.426;5.444;2023-04-28T12:37:03;100948.63;;;13.94;68.19
48614;BME280;34408;51.426;5.444;2023-04-28T12:39:32;100967.78;;;13.92;69.00
48614;BME280;34408;51.426;5.444;2023-04-28T12:42:03;100968.03;;;13.91;70.36
48614;BME280;34408;51.426;5.444;2023-04-28T12:44:31;100969.34;;;13.88;70.03
48614;BME280;34408;51.426;5.444;2023-04-28T12:47:02;100970.66;;;13.86;70.32
48614;BME280;34408;51.426;5.444;2023-04-28T12:49:32;100984.41;;;13.84;70.08
48614;BME280;34408;51.426;5.444;2023-04-28T12:52:00;100973.84;;;13.83;70.54
48614;BME280;34408;51.426;5.444;2023-04-28T12:54:28;100974.91;;;13.82;70.50
48614;BME280;34408;51.426;5.444;2023-04-28T12:56:56;100982.19;;;13.81;70.82
48614;BME280;34408;51.426;5.444;2023-04-28T12:59:24;100985.13;;;13.80;71.24
48614;BME280;34408;51.426;5.444;2023-04-28T13:01:52;100989.72;;;13.79;71.38
48614;BME280;34408;51.426;5.444;2023-04-28T13:04:21;100990.78;;;13.78;71.92